Time;durP1;ratioP1;P1;durP2;ratioP2;P2;SDS_P1;SDS_P2;PMS_P1;PMS_P2;Temp;Humidity;BMP_temperature;BMP_pressure;BME280_temperature;BME280_humidity;BME280_pressure;Samples;Min_cycle;Max_cycle;Signal;HPM_P1;HPM_P2
2022/06/10 00:00:05;;;;;;;7.15;4.70;;;;;;;;;;5083477;28;20107;-85
2022/06/10 00:02:32;;;;;;;6.80;4.82;;;;;;;;;;5084033;28;20044;-83
2022/06/10 00:04:58;;;;;;;8.52;4.80;;;;;;;;;;5073645;28;20089;-85
2022/06/10 00:07:24;;;;;;;7.13;4.82;;;;;;;;;;5096677;28;20051;-85
2022/06/10 00:09:50;;;;;;;8.00;4.97;;;;;;;;;;5107494;28;20020;-83
2022/06/10 00:12:16;;;;;;;6.65;4.90;;;;;;;;;;5104100;28;20654;-84
2022/06/10 00:14:42;;;;;;;7.15;4.93;;;;;;;;;;5093429;28;20028;-85
2022/06/10 00:17:09;;;;;;;7.30;4.95;;;;;;;;;;5078755;28;20085;-84
2022/06/10 00:19:35;;;;;;;8.10;4.75;;;;;;;;;;5075959;28;20025;-87
2022/06/10 00:22:01;;;;;;;7.00;5.38;;;;;;;;;;5091361;28;20020;-86
2022/06/10 00:24:27;;;;;;;9.75;5.22;;;;;;;;;;5085512;28;20021;-86
2022/06/10 00:26:54;;;;;;;9.10;6.25;;;;;;;;;;5069483;28;20048;-86
2022/06/10 00:29:20;;;;;;;8.07;5.63;;;;;;;;;;5079719;28;20043;-86
2022/06/10 00:31:46;;;;;;;9.95;6.22;;;;;;;;;;5091060;28;20033;-85
2022/06/10 00:34:12;;;;;;;9.23;5.80;;;;;;;;;;5071955;28;20029;-85
2022/06/10 00:36:38;;;;;;;11.00;6.80;;;;;;;;;;5068846;28;20032;-85
2022/06/10 00:39:04;;;;;;;8.95;6.13;;;;;;;;;;5081882;28;20021;-85
2022/06/10 00:41:30;;;;;;;10.05;6.60;;;;;;;;;;5084981;28;20070;-86
2022/06/10 00:43:56;;;;;;;9.30;6.57;;;;;;;;;;5075145;28;20037;-87
2022/06/10 00:46:29;;;;;;;9.48;6.88;;;;;;;;;;5069469;28;20040;-85
2022/06/10 00:49:07;;;;;;;8.73;7.07;;;;;;;;;;5086675;28;20048;-85
2022/06/10 00:51:33;;;;;;;11.68;7.53;;;;;;;;;;5088268;28;20036;-85
2022/06/10 00:54:07;;;;;;;9.55;6.72;;;;;;;;;;5077191;28;20016;-86
2022/06/10 00:56:34;;;;;;;9.68;7.50;;;;;;;;;;5085836;28;20028;-87
2022/06/10 00:59:02;;;;;;;11.02;7.68;;;;;;;;;;5086907;28;20040;-85
2022/06/10 01:01:30;;;;;;;10.10;7.30;;;;;;;;;;5094049;28;20476;-86
2022/06/10 01:03:56;;;;;;;10.88;6.45;;;;;;;;;;5107162;28;20024;-86
2022/06/10 01:06:22;;;;;;;11.25;7.20;;;;;;;;;;5089957;28;20071;-85
2022/06/10 01:08:50;;;;;;;11.50;6.80;;;;;;;;;;5075740;28;20325;-86
2022/06/10 01:11:28;;;;;;;10.05;6.65;;;;;;;;;;5064525;28;20112;-86
2022/06/10 01:14:13;;;;;;;12.00;6.75;;;;;;;;;;5065425;28;20032;-85
2022/06/10 01:16:39;;;;;;;9.80;6.82;;;;;;;;;;5062769;28;20025;-86
2022/06/10 01:19:05;;;;;;;9.95;6.95;;;;;;;;;;5063790;28;20112;-86
2022/06/10 01:21:31;;;;;;;10.93;7.20;;;;;;;;;;5065371;28;20020;-85
2022/06/10 01:24:17;;;;;;;8.73;6.80;;;;;;;;;;5062409;28;20104;-88
2022/06/10 01:29:39;;;;;;;11.15;7.70;;;;;;;;;;5072978;28;20043;-88
2022/06/10 01:32:40;;;;;;;11.60;7.45;;;;;;;;;;5079254;28;20033;-85
2022/06/10 01:35:06;;;;;;;10.38;7.53;;;;;;;;;;5041538;28;20071;-85
2022/06/10 01:37:36;;;;;;;11.82;7.68;;;;;;;;;;5025485;28;20044;-85
2022/06/10 01:40:21;;;;;;;11.23;7.43;;;;;;;;;;5041241;28;20112;-87
2022/06/10 01:42:56;;;;;;;10.02;7.53;;;;;;;;;;5026471;28;20038;-85
2022/06/10 01:45:34;;;;;;;11.43;7.85;;;;;;;;;;5041454;28;20037;-86
2022/06/10 01:48:03;;;;;;;14.52;7.90;;;;;;;;;;5004722;28;20105;-86
2022/06/10 01:50:29;;;;;;;11.10;8.27;;;;;;;;;;5005955;28;20034;-86
2022/06/10 01:52:58;;;;;;;12.77;8.18;;;;;;;;;;5016731;28;20079;-86
2022/06/10 01:55:50;;;;;;;11.07;7.80;;;;;;;;;;5018923;28;20045;-86
2022/06/10 01:58:28;;;;;;;11.68;7.63;;;;;;;;;;5025194;28;20116;-87
2022/06/10 02:00:57;;;;;;;13.43;7.82;;;;;;;;;;5017321;28;20028;-85
2022/06/10 02:03:41;;;;;;;11.23;8.40;;;;;;;;;;5005681;28;20113;-86
2022/06/10 02:06:17;;;;;;;11.43;7.70;;;;;;;;;;5007695;28;20117;-86
2022/06/10 02:08:48;;;;;;;12.10;8.20;;;;;;;;;;5024953;28;20095;-86
2022/06/10 02:11:15;;;;;;;10.68;8.05;;;;;;;;;;5072426;28;20004;-87
2022/06/10 02:13:44;;;;;;;9.70;7.32;;;;;;;;;;5065700;28;20068;-87
2022/06/10 02:16:17;;;;;;;11.77;7.72;;;;;;;;;;5063892;28;20025;-86
2022/06/10 02:18:47;;;;;;;10.55;7.47;;;;;;;;;;5065415;28;20035;-86
2022/06/10 02:21:17;;;;;;;10.05;8.07;;;;;;;;;;5075165;28;20028;-86
2022/06/10 02:23:45;;;;;;;9.52;7.15;;;;;;;;;;5081496;28;20028;-86
2022/06/10 02:26:11;;;;;;;11.05;7.75;;;;;;;;;;5079972;28;20038;-85
2022/06/10 02:28:39;;;;;;;11.52;8.10;;;;;;;;;;5082698;28;20029;-86
2022/06/10 02:31:08;;;;;;;10.52;7.68;;;;;;;;;;5078129;28;20052;-85
2022/06/10 02:33:36;;;;;;;10.02;7.50;;;;;;;;;;5084134;28;20024;-86
2022/06/10 02:36:21;;;;;;;11.40;8.68;;;;;;;;;;5081753;28;20024;-85
2022/06/10 02:38:53;;;;;;;11.35;7.97;;;;;;;;;;5081046;28;20025;-86
2022/06/10 02:41:25;;;;;;;10.93;7.82;;;;;;;;;;5082221;28;20089;-87
2022/06/10 02:43:58;;;;;;;11.93;8.07;;;;;;;;;;5071216;28;20428;-86
2022/06/10 02:46:35;;;;;;;11.18;8.55;;;;;;;;;;5079138;28;20032;-85
2022/06/10 02:49:09;;;;;;;12.43;8.05;;;;;;;;;;5086018;28;20032;-85
2022/06/10 02:51:36;;;;;;;10.43;8.25;;;;;;;;;;5077688;28;20035;-87
2022/06/10 02:54:04;;;;;;;11.57;8.15;;;;;;;;;;5079027;28;20284;-86
2022/06/10 02:56:30;;;;;;;10.68;7.80;;;;;;;;;;5067988;28;20044;-85
2022/06/10 03:01:48;;;;;;;10.55;7.60;;;;;;;;;;5067549;28;20438;-86
2022/06/10 03:04:35;;;;;;;10.32;7.45;;;;;;;;;;5066442;28;20112;-85
2022/06/10 03:07:26;;;;;;;11.73;8.40;;;;;;;;;;5069720;28;20040;-86
2022/06/10 03:10:03;;;;;;;10.52;7.80;;;;;;;;;;5081287;28;20051;-86
2022/06/10 03:13:09;;;;;;;10.98;7.68;;;;;;;;;;5067374;28;20056;-87
2022/06/10 03:16:10;;;;;;;9.82;7.18;;;;;;;;;;5026159;28;20036;-87
2022/06/10 03:18:39;;;;;;;9.73;7.68;;;;;;;;;;4923090;29;20183;-86
2022/06/10 03:21:16;;;;;;;10.48;7.88;;;;;;;;;;4940627;28;20039;-88
2022/06/10 03:24:05;;;;;;;11.50;7.93;;;;;;;;;;4964648;28;20023;-86
2022/06/10 03:26:43;;;;;;;10.93;7.90;;;;;;;;;;4959931;28;20104;-85
2022/06/10 03:29:12;;;;;;;11.35;7.75;;;;;;;;;;4979583;28;20053;-85
2022/06/10 03:31:43;;;;;;;12.10;8.27;;;;;;;;;;4972984;28;20035;-86
2022/06/10 03:34:22;;;;;;;13.63;9.05;;;;;;;;;;4972573;28;20034;-86
2022/06/10 03:36:48;;;;;;;10.43;8.45;;;;;;;;;;4962384;28;20032;-83
2022/06/10 03:39:15;;;;;;;11.93;8.25;;;;;;;;;;4961248;29;20035;-83
2022/06/10 03:41:42;;;;;;;12.95;8.80;;;;;;;;;;4976487;28;20039;-85
2022/06/10 03:44:16;;;;;;;12.23;8.57;;;;;;;;;;4978884;28;20078;-86
2022/06/10 03:46:45;;;;;;;15.95;9.50;;;;;;;;;;4975748;28;20050;-85
2022/06/10 03:49:13;;;;;;;13.85;9.48;;;;;;;;;;4972108;28;20026;-83
2022/06/10 03:51:39;;;;;;;12.30;8.60;;;;;;;;;;4985407;28;20047;-85
2022/06/10 03:54:06;;;;;;;11.40;8.25;;;;;;;;;;5063730;28;20021;-85
2022/06/10 03:56:35;;;;;;;11.95;8.88;;;;;;;;;;5071326;28;20025;-84
2022/06/10 03:59:01;;;;;;;12.05;8.63;;;;;;;;;;5081242;28;20035;-85
2022/06/10 04:01:27;;;;;;;12.68;8.95;;;;;;;;;;5082806;28;20063;-87
2022/06/10 04:03:53;;;;;;;12.50;8.80;;;;;;;;;;5068123;28;20108;-85
2022/06/10 04:06:19;;;;;;;11.82;8.80;;;;;;;;;;5073346;28;20029;-86
2022/06/10 04:08:45;;;;;;;12.45;8.73;;;;;;;;;;5071185;28;20237;-86
2022/06/10 04:11:11;;;;;;;12.68;9.27;;;;;;;;;;5085588;28;20042;-86
2022/06/10 04:13:37;;;;;;;12.82;9.10;;;;;;;;;;5068661;28;20059;-85
2022/06/10 04:16:04;;;;;;;14.02;9.07;;;;;;;;;;5080361;28;20028;-85
2022/06/10 04:18:31;;;;;;;11.93;8.77;;;;;;;;;;5064769;28;20080;-86
2022/06/10 04:20:57;;;;;;;11.63;8.00;;;;;;;;;;5065553;28;20321;-87
2022/06/10 04:23:23;;;;;;;11.93;8.85;;;;;;;;;;5068303;28;20029;-86
2022/06/10 04:25:49;;;;;;;11.70;8.00;;;;;;;;;;5067449;28;20096;-86
2022/06/10 04:28:15;;;;;;;12.80;8.43;;;;;;;;;;5068694;28;20088;-85
2022/06/10 04:30:45;;;;;;;11.45;8.63;;;;;;;;;;5069846;28;20052;-86
2022/06/10 04:33:11;;;;;;;12.80;8.77;;;;;;;;;;5072629;28;20043;-86
2022/06/10 04:35:38;;;;;;;12.27;8.73;;;;;;;;;;5072896;28;20052;-84
2022/06/10 04:38:05;;;;;;;12.93;9.25;;;;;;;;;;5066457;28;20036;-84
2022/06/10 04:40:32;;;;;;;12.25;8.48;;;;;;;;;;5063526;28;20021;-87
2022/06/10 04:42:58;;;;;;;12.10;8.57;;;;;;;;;;5081241;28;20115;-86
2022/06/10 04:45:26;;;;;;;10.48;7.85;;;;;;;;;;5078700;28;20036;-85
2022/06/10 04:47:55;;;;;;;11.90;8.10;;;;;;;;;;5076157;28;20028;-85
2022/06/10 04:50:22;;;;;;;11.90;7.63;;;;;;;;;;5074688;28;20084;-85
2022/06/10 04:52:48;;;;;;;13.25;8.50;;;;;;;;;;5070825;28;20025;-85
2022/06/10 04:55:14;;;;;;;12.55;8.90;;;;;;;;;;5085883;28;20020;-85
2022/06/10 04:57:40;;;;;;;12.13;8.05;;;;;;;;;;5069304;28;20091;-85
2022/06/10 05:00:08;;;;;;;11.82;8.43;;;;;;;;;;5076979;28;20242;-86
2022/06/10 05:02:34;;;;;;;10.00;7.88;;;;;;;;;;5082351;28;20028;-86
2022/06/10 05:05:00;;;;;;;12.10;8.10;;;;;;;;;;5083338;28;20028;-85
2022/06/10 05:07:26;;;;;;;11.30;8.02;;;;;;;;;;5081463;28;20024;-84
2022/06/10 05:09:52;;;;;;;11.30;8.07;;;;;;;;;;5082570;28;20029;-89
2022/06/10 05:12:18;;;;;;;11.98;8.77;;;;;;;;;;5074950;28;20438;-85
2022/06/10 05:14:45;;;;;;;13.25;8.70;;;;;;;;;;5083316;28;20036;-86
2022/06/10 05:17:11;;;;;;;11.70;8.48;;;;;;;;;;5086095;28;20021;-83
2022/06/10 05:19:37;;;;;;;12.73;9.52;;;;;;;;;;5085818;28;20411;-85
2022/06/10 05:22:04;;;;;;;11.93;8.63;;;;;;;;;;5077544;28;20111;-85
2022/06/10 05:24:30;;;;;;;11.52;8.50;;;;;;;;;;5075667;28;20029;-85
2022/06/10 05:26:56;;;;;;;13.15;10.13;;;;;;;;;;5086784;28;20031;-84
2022/06/10 05:29:22;;;;;;;12.57;8.70;;;;;;;;;;5085039;28;20565;-85
2022/06/10 05:31:48;;;;;;;13.88;8.20;;;;;;;;;;5087155;28;20028;-86
2022/06/10 05:36:58;;;;;;;12.75;9.13;;;;;;;;;;5108861;28;20047;-85
2022/06/10 05:39:24;;;;;;;15.30;9.48;;;;;;;;;;5103026;28;20510;-85
2022/06/10 05:42:06;;;;;;;14.73;10.13;;;;;;;;;;5086106;28;20021;-84
2022/06/10 05:44:43;;;;;;;12.60;8.85;;;;;;;;;;5083438;28;20032;-84
2022/06/10 05:47:10;;;;;;;11.75;8.73;;;;;;;;;;5089258;28;20024;-86
2022/06/10 05:49:38;;;;;;;11.07;8.60;;;;;;;;;;5081745;28;20043;-85
2022/06/10 05:52:06;;;;;;;12.00;8.23;;;;;;;;;;5067792;28;20028;-85
2022/06/10 05:54:32;;;;;;;11.55;8.60;;;;;;;;;;5080939;28;20040;-85
2022/06/10 05:56:58;;;;;;;11.80;8.35;;;;;;;;;;5084004;28;20115;-85
2022/06/10 05:59:24;;;;;;;14.52;9.68;;;;;;;;;;5073967;28;20028;-85
2022/06/10 06:01:50;;;;;;;12.40;8.30;;;;;;;;;;5089767;28;20019;-85
2022/06/10 06:04:16;;;;;;;14.57;8.98;;;;;;;;;;5076476;28;20025;-85
2022/06/10 06:06:43;;;;;;;12.10;8.25;;;;;;;;;;5069585;28;20028;-85
2022/06/10 06:09:10;;;;;;;13.32;8.90;;;;;;;;;;5068230;28;20025;-86
2022/06/10 06:11:36;;;;;;;12.73;8.70;;;;;;;;;;5064257;28;20033;-86
2022/06/10 06:14:02;;;;;;;12.18;8.32;;;;;;;;;;5069638;28;20066;-87
2022/06/10 06:16:28;;;;;;;12.57;9.38;;;;;;;;;;5080374;28;20020;-86
2022/06/10 06:18:54;;;;;;;13.45;9.13;;;;;;;;;;5077920;28;20126;-86
2022/06/10 06:21:20;;;;;;;12.77;9.52;;;;;;;;;;5080995;28;20028;-87
2022/06/10 06:23:46;;;;;;;11.85;8.77;;;;;;;;;;5070436;28;20031;-86
2022/06/10 06:26:15;;;;;;;12.52;9.40;;;;;;;;;;5060228;28;20048;-86
2022/06/10 06:28:41;;;;;;;14.18;10.18;;;;;;;;;;5060055;28;20033;-86
2022/06/10 06:31:07;;;;;;;14.55;10.20;;;;;;;;;;5059468;28;20335;-85
2022/06/10 06:33:33;;;;;;;13.13;9.27;;;;;;;;;;5064381;28;20029;-87
2022/06/10 06:35:59;;;;;;;13.23;9.25;;;;;;;;;;5066760;28;20029;-86
2022/06/10 06:38:26;;;;;;;12.23;9.15;;;;;;;;;;5083475;28;20025;-86
2022/06/10 06:40:52;;;;;;;13.57;9.27;;;;;;;;;;5083264;28;20017;-87
2022/06/10 06:43:18;;;;;;;11.95;9.70;;;;;;;;;;5081528;28;20028;-86
2022/06/10 06:45:45;;;;;;;14.35;9.90;;;;;;;;;;5066954;28;20033;-87
2022/06/10 06:48:11;;;;;;;12.85;9.38;;;;;;;;;;5071648;28;20028;-87
2022/06/10 06:50:41;;;;;;;15.02;10.13;;;;;;;;;;5062785;28;20150;-86
2022/06/10 06:53:07;;;;;;;12.40;9.13;;;;;;;;;;5077682;28;20036;-86
2022/06/10 06:55:33;;;;;;;12.07;8.77;;;;;;;;;;5085427;28;20024;-86
2022/06/10 06:57:59;;;;;;;11.43;8.57;;;;;;;;;;5086907;28;20115;-86
2022/06/10 07:00:28;;;;;;;12.75;9.27;;;;;;;;;;5071031;28;20660;-85
2022/06/10 07:02:55;;;;;;;11.55;9.10;;;;;;;;;;5084790;28;20025;-86
2022/06/10 07:05:21;;;;;;;12.90;9.15;;;;;;;;;;5085590;28;20025;-85
2022/06/10 07:07:47;;;;;;;16.08;10.05;;;;;;;;;;5067840;28;20025;-85
2022/06/10 07:10:14;;;;;;;14.20;10.25;;;;;;;;;;5085102;28;20116;-85
2022/06/10 07:12:40;;;;;;;10.63;8.60;;;;;;;;;;5079811;28;20044;-85
2022/06/10 07:15:06;;;;;;;11.65;8.88;;;;;;;;;;5064397;28;20029;-86
2022/06/10 07:17:32;;;;;;;12.43;9.48;;;;;;;;;;5066586;28;20025;-85
2022/06/10 07:19:59;;;;;;;12.48;9.80;;;;;;;;;;5063659;28;20021;-86
2022/06/10 07:22:26;;;;;;;13.23;9.70;;;;;;;;;;5063766;28;20025;-87
2022/06/10 07:24:53;;;;;;;11.70;8.60;;;;;;;;;;5082100;28;20024;-87
2022/06/10 07:27:19;;;;;;;10.85;8.93;;;;;;;;;;5083894;28;20077;-85
2022/06/10 07:29:45;;;;;;;12.18;9.32;;;;;;;;;;5084357;28;20083;-86
2022/06/10 07:32:11;;;;;;;13.05;9.23;;;;;;;;;;5072084;28;20025;-86
2022/06/10 07:34:37;;;;;;;13.75;10.07;;;;;;;;;;5085038;28;20555;-86
2022/06/10 07:37:04;;;;;;;12.68;9.52;;;;;;;;;;5102618;28;20028;-84
2022/06/10 07:39:31;;;;;;;12.70;9.70;;;;;;;;;;5084305;28;20040;-85
2022/06/10 07:41:58;;;;;;;13.77;10.18;;;;;;;;;;5072614;28;20508;-86
2022/06/10 07:44:34;;;;;;;14.45;11.00;;;;;;;;;;5083256;28;20025;-84
2022/06/10 07:47:01;;;;;;;13.30;10.02;;;;;;;;;;5071595;28;20033;-87
2022/06/10 07:49:28;;;;;;;13.93;10.15;;;;;;;;;;5064186;28;20025;-86
2022/06/10 07:51:54;;;;;;;13.90;11.18;;;;;;;;;;5068892;28;20071;-84
2022/06/10 07:54:20;;;;;;;14.65;11.20;;;;;;;;;;5079234;28;20029;-84
2022/06/10 07:56:46;;;;;;;14.57;10.18;;;;;;;;;;5083889;28;20479;-86
2022/06/10 07:59:14;;;;;;;13.15;10.13;;;;;;;;;;5090899;28;20061;-85
2022/06/10 08:01:41;;;;;;;13.88;10.15;;;;;;;;;;5089038;28;20031;-85
2022/06/10 08:04:08;;;;;;;15.10;10.95;;;;;;;;;;5088166;28;20042;-84
2022/06/10 08:06:34;;;;;;;16.08;11.13;;;;;;;;;;5074237;28;20033;-84
2022/06/10 08:09:01;;;;;;;13.95;10.40;;;;;;;;;;5069949;28;20031;-85
2022/06/10 08:11:27;;;;;;;13.23;10.10;;;;;;;;;;5068342;28;20439;-85
2022/06/10 08:13:53;;;;;;;13.75;10.82;;;;;;;;;;5071386;28;20033;-85
2022/06/10 08:16:19;;;;;;;13.50;10.90;;;;;;;;;;5074711;28;20033;-85
2022/06/10 08:18:45;;;;;;;13.25;9.93;;;;;;;;;;5069850;28;20052;-85
2022/06/10 08:22:32;;;;;;;14.23;10.75;;;;;;;;;;5068459;28;20028;-86
2022/06/10 08:24:16;;;;;;;14.95;10.40;;;;;;;;;;5074692;28;20511;-86
2022/06/10 08:26:42;;;;;;;13.95;11.02;;;;;;;;;;5085678;28;20161;-87
2022/06/10 08:29:08;;;;;;;13.43;10.10;;;;;;;;;;5087198;28;20024;-86
2022/06/10 08:31:34;;;;;;;14.60;10.98;;;;;;;;;;5086466;28;20111;-85
2022/06/10 08:34:02;;;;;;;14.00;11.07;;;;;;;;;;5068309;28;20037;-86
2022/06/10 08:36:28;;;;;;;12.80;10.00;;;;;;;;;;5083009;28;20033;-85
2022/06/10 08:38:54;;;;;;;14.38;10.45;;;;;;;;;;5088348;28;20016;-87
2022/06/10 08:41:23;;;;;;;14.05;10.55;;;;;;;;;;5074440;28;20040;-86
2022/06/10 08:44:05;;;;;;;13.30;10.48;;;;;;;;;;5080404;28;20056;-87
2022/06/10 08:46:34;;;;;;;15.77;10.77;;;;;;;;;;5082149;28;20111;-86
2022/06/10 08:49:00;;;;;;;13.30;10.30;;;;;;;;;;5077847;28;20108;-86
2022/06/10 08:51:40;;;;;;;14.73;10.85;;;;;;;;;;5077194;28;20060;-86
2022/06/10 08:54:06;;;;;;;13.60;10.48;;;;;;;;;;5062699;28;20056;-86
2022/06/10 08:56:40;;;;;;;14.10;10.65;;;;;;;;;;5099148;28;20043;-86
2022/06/10 08:59:09;;;;;;;14.70;10.07;;;;;;;;;;5074836;28;20059;-86
2022/06/10 09:02:03;;;;;;;12.50;9.82;;;;;;;;;;5075190;28;20692;-86
2022/06/10 09:04:29;;;;;;;13.23;10.07;;;;;;;;;;5062698;28;20036;-86
2022/06/10 09:06:57;;;;;;;13.55;10.30;;;;;;;;;;5084400;28;20037;-87
2022/06/10 09:09:28;;;;;;;13.93;11.07;;;;;;;;;;5076945;28;20016;-86
2022/06/10 09:12:02;;;;;;;13.15;10.15;;;;;;;;;;5100010;28;20028;-86
2022/06/10 09:14:29;;;;;;;13.10;10.05;;;;;;;;;;5076798;28;20025;-86
2022/06/10 09:17:01;;;;;;;14.25;10.65;;;;;;;;;;5080783;28;20009;-86
2022/06/10 09:19:45;;;;;;;13.93;10.13;;;;;;;;;;5071989;28;20020;-88
2022/06/10 09:22:32;;;;;;;13.95;9.75;;;;;;;;;;5079062;28;20122;-86
2022/06/10 09:25:12;;;;;;;13.48;9.80;;;;;;;;;;5070875;28;20029;-87
2022/06/10 09:27:44;;;;;;;13.40;10.65;;;;;;;;;;5066065;28;20115;-87
2022/06/10 09:30:12;;;;;;;11.70;9.40;;;;;;;;;;5063848;28;20082;-87
2022/06/10 09:32:44;;;;;;;11.48;9.48;;;;;;;;;;5078554;28;20472;-86
2022/06/10 09:35:11;;;;;;;;;;;;;;;;;;5080005;28;20004;-87
2022/06/10 09:37:45;;;;;;;12.77;9.27;;;;;;;;;;5074939;28;20366;-86
2022/06/10 09:43:07;;;;;;;17.33;10.68;;;;;;;;;;5077559;28;20031;-86
2022/06/10 09:45:39;;;;;;;11.80;9.75;;;;;;;;;;5060543;28;20025;-88
2022/06/10 09:48:14;;;;;;;13.32;10.45;;;;;;;;;;5059305;28;20017;-86
2022/06/10 09:50:43;;;;;;;14.10;10.10;;;;;;;;;;5063398;28;20013;-85
2022/06/10 09:53:36;;;;;;;13.02;9.73;;;;;;;;;;5061466;28;20079;-87
2022/06/10 09:56:06;;;;;;;13.93;10.80;;;;;;;;;;5061153;28;20032;-86
2022/06/10 09:58:32;;;;;;;14.85;11.15;;;;;;;;;;5071620;28;20476;-86
2022/06/10 10:01:08;;;;;;;14.32;10.05;;;;;;;;;;5065664;28;20029;-87
2022/06/10 10:03:43;;;;;;;12.60;9.60;;;;;;;;;;5073290;28;20029;-87
2022/06/10 10:06:29;;;;;;;12.23;8.65;;;;;;;;;;5081479;28;20029;-87
2022/06/10 10:08:58;;;;;;;10.38;9.02;;;;;;;;;;5080359;28;20036;-86
2022/06/10 10:11:43;;;;;;;12.32;9.48;;;;;;;;;;5080190;28;20051;-87
2022/06/10 10:14:12;;;;;;;13.55;9.38;;;;;;;;;;5077092;28;20107;-86
2022/06/10 10:16:56;;;;;;;13.57;9.05;;;;;;;;;;5067771;28;20032;-87
2022/06/10 10:19:31;;;;;;;12.50;9.15;;;;;;;;;;5073369;28;20028;-86
2022/06/10 10:21:56;;;;;;;14.68;10.32;;;;;;;;;;5061139;28;20078;-86
2022/06/10 10:24:24;;;;;;;12.30;9.55;;;;;;;;;;5057917;28;20025;-87
2022/06/10 10:26:51;;;;;;;12.25;9.45;;;;;;;;;;5068475;28;20050;-90
2022/06/10 10:29:22;;;;;;;11.32;10.07;;;;;;;;;;5074580;28;20048;-87
2022/06/10 10:31:52;;;;;;;11.65;9.55;;;;;;;;;;5061863;28;20033;-87
2022/06/10 10:34:20;;;;;;;11.95;8.93;;;;;;;;;;5077342;28;20028;-86
2022/06/10 10:36:51;;;;;;;11.60;9.25;;;;;;;;;;5069542;28;20029;-85
2022/06/10 10:39:38;;;;;;;11.55;9.48;;;;;;;;;;5063686;28;20032;-86
2022/06/10 10:42:07;;;;;;;12.63;9.43;;;;;;;;;;5062961;28;20025;-86
2022/06/10 10:44:38;;;;;;;11.10;9.35;;;;;;;;;;5073091;28;20058;-87
2022/06/10 10:47:04;;;;;;;13.52;9.55;;;;;;;;;;5071555;28;20029;-86
2022/06/10 10:49:33;;;;;;;11.52;8.70;;;;;;;;;;5073017;28;20481;-88
2022/06/10 10:51:59;;;;;;;12.20;9.13;;;;;;;;;;5068505;28;20032;-87
2022/06/10 10:54:33;;;;;;;13.27;9.20;;;;;;;;;;5077328;28;20099;-86
2022/06/10 10:56:59;;;;;;;11.63;9.73;;;;;;;;;;5072381;28;20021;-87
2022/06/10 10:59:32;;;;;;;12.27;9.77;;;;;;;;;;5064099;28;20055;-85
2022/06/10 11:01:58;;;;;;;11.43;9.10;;;;;;;;;;5059972;28;20017;-85
2022/06/10 11:04:32;;;;;;;12.48;9.50;;;;;;;;;;5058627;28;20028;-84
2022/06/10 11:06:59;;;;;;;12.57;9.02;;;;;;;;;;5064353;28;20328;-87
2022/06/10 11:09:26;;;;;;;11.77;9.30;;;;;;;;;;5076863;28;20032;-86
2022/06/10 11:11:53;;;;;;;11.75;9.18;;;;;;;;;;5075748;28;20054;-87
2022/06/10 11:14:33;;;;;;;15.18;9.98;;;;;;;;;;5075393;28;20048;-88
2022/06/10 11:17:14;;;;;;;11.05;9.02;;;;;;;;;;5071269;28;20503;-89
2022/06/10 11:19:45;;;;;;;12.40;9.07;;;;;;;;;;5057744;28;20017;-86
2022/06/10 11:22:19;;;;;;;12.90;9.35;;;;;;;;;;5057669;28;20031;-86
2022/06/10 11:24:48;;;;;;;10.20;8.30;;;;;;;;;;5063605;28;20391;-87
2022/06/10 11:27:29;;;;;;;13.40;9.00;;;;;;;;;;5062817;28;20025;-86
2022/06/10 11:30:15;;;;;;;11.20;8.32;;;;;;;;;;5056899;28;20041;-87
2022/06/10 11:32:51;;;;;;;10.13;8.60;;;;;;;;;;5059351;28;20060;-87
2022/06/10 11:35:23;;;;;;;11.68;9.10;;;;;;;;;;5062364;28;20028;-86
2022/06/10 11:37:51;;;;;;;11.18;9.13;;;;;;;;;;5057955;28;20017;-88
2022/06/10 11:40:21;;;;;;;11.27;9.20;;;;;;;;;;5059194;28;20092;-87
2022/06/10 11:42:50;;;;;;;10.68;8.32;;;;;;;;;;5062040;28;20119;-88
2022/06/10 11:45:18;;;;;;;9.18;7.88;;;;;;;;;;5061179;28;20055;-87
2022/06/10 11:48:05;;;;;;;10.32;8.18;;;;;;;;;;5061584;28;20052;-88
2022/06/10 11:50:37;;;;;;;11.15;9.00;;;;;;;;;;5084114;28;20036;-88
2022/06/10 11:53:07;;;;;;;10.87;9.10;;;;;;;;;;5073694;28;20024;-88
2022/06/10 11:55:35;;;;;;;10.93;9.02;;;;;;;;;;5071450;28;20025;-86
2022/06/10 12:00:55;;;;;;;11.63;9.00;;;;;;;;;;5070711;28;21641;-87
2022/06/10 12:03:24;;;;;;;11.98;9.55;;;;;;;;;;5084493;28;20024;-87
2022/06/10 12:06:02;;;;;;;10.43;9.32;;;;;;;;;;5077499;28;20063;-87
2022/06/10 12:08:31;;;;;;;12.00;8.55;;;;;;;;;;5078816;28;20090;-84
2022/06/10 12:10:57;;;;;;;11.38;9.10;;;;;;;;;;5078062;28;20059;-85
2022/06/10 12:13:25;;;;;;;11.07;8.88;;;;;;;;;;5081419;28;20028;-85
2022/06/10 12:15:58;;;;;;;10.88;9.00;;;;;;;;;;5085297;28;20058;-86
2022/06/10 12:18:27;;;;;;;10.88;8.80;;;;;;;;;;5079218;28;20040;-86
2022/06/10 12:20:57;;;;;;;10.38;8.60;;;;;;;;;;5068832;28;20569;-85
2022/06/10 12:23:28;;;;;;;11.35;9.23;;;;;;;;;;5076212;28;20037;-86
2022/06/10 12:26:01;;;;;;;11.73;8.63;;;;;;;;;;5074213;28;20020;-82
2022/06/10 12:28:27;;;;;;;11.13;8.85;;;;;;;;;;5085329;28;20444;-85
2022/06/10 12:31:00;;;;;;;11.98;9.50;;;;;;;;;;5064668;28;20041;-85
2022/06/10 12:33:42;;;;;;;11.60;8.73;;;;;;;;;;5066480;28;20100;-84
2022/06/10 12:36:13;;;;;;;10.90;8.68;;;;;;;;;;5081898;28;20021;-86
2022/06/10 12:38:40;;;;;;;9.93;8.52;;;;;;;;;;5081382;28;20012;-86
2022/06/10 12:41:10;;;;;;;12.32;8.43;;;;;;;;;;5083301;28;20103;-86
2022/06/10 12:43:45;;;;;;;12.05;9.05;;;;;;;;;;5086786;28;20024;-86
2022/06/10 12:46:20;;;;;;;12.15;8.73;;;;;;;;;;5065811;28;20033;-86
2022/06/10 12:48:47;;;;;;;10.98;7.97;;;;;;;;;;5062195;28;20037;-87
2022/06/10 12:51:13;;;;;;;10.65;8.50;;;;;;;;;;5096715;28;20028;-87
2022/06/10 12:53:39;;;;;;;10.65;8.73;;;;;;;;;;5102892;28;20035;-87
2022/06/10 12:56:21;;;;;;;10.73;8.38;;;;;;;;;;5077200;28;20063;-85
2022/06/10 12:58:53;;;;;;;9.35;7.97;;;;;;;;;;5073375;28;20350;-87
2022/06/10 13:01:28;;;;;;;11.00;8.50;;;;;;;;;;5080869;28;20017;-85
2022/06/10 13:03:56;;;;;;;9.80;8.43;;;;;;;;;;5076571;28;20017;-84
2022/06/10 13:06:31;;;;;;;10.25;7.93;;;;;;;;;;5068495;28;20021;-82
2022/06/10 13:08:58;;;;;;;10.82;8.50;;;;;;;;;;5071378;28;20033;-84
2022/06/10 13:11:33;;;;;;;11.35;9.38;;;;;;;;;;5085493;28;20021;-85
2022/06/10 13:14:12;;;;;;;11.10;8.70;;;;;;;;;;5081397;28;20492;-87
2022/06/10 13:16:47;;;;;;;11.25;8.88;;;;;;;;;;5082221;28;20519;-84
2022/06/10 13:19:29;;;;;;;12.75;9.43;;;;;;;;;;5074881;28;20029;-85
2022/06/10 13:21:55;;;;;;;11.45;9.27;;;;;;;;;;5075566;28;20028;-86
2022/06/10 13:24:21;;;;;;;10.95;9.25;;;;;;;;;;5070410;28;20020;-86
2022/06/10 13:26:48;;;;;;;10.65;8.85;;;;;;;;;;5090787;28;20034;-86
2022/06/10 13:29:15;;;;;;;11.68;9.88;;;;;;;;;;5093841;28;20074;-86
2022/06/10 13:31:50;;;;;;;9.52;8.23;;;;;;;;;;5075606;28;20063;-84
2022/06/10 13:34:22;;;;;;;9.57;8.07;;;;;;;;;;5084303;28;20032;-87
2022/06/10 13:36:51;;;;;;;11.40;8.55;;;;;;;;;;5080633;28;20027;-84
2022/06/10 13:39:23;;;;;;;11.32;7.88;;;;;;;;;;5072967;28;20021;-84
2022/06/10 13:41:54;;;;;;;9.80;7.85;;;;;;;;;;5068403;28;20112;-84
2022/06/10 13:44:30;;;;;;;9.13;7.07;;;;;;;;;;5069173;28;20119;-85
2022/06/10 13:46:57;;;;;;;9.55;7.28;;;;;;;;;;5065624;28;20448;-87
2022/06/10 13:49:46;;;;;;;9.75;7.30;;;;;;;;;;5074391;28;20021;-86
2022/06/10 13:52:28;;;;;;;10.27;7.43;;;;;;;;;;5073241;28;20032;-86
2022/06/10 13:54:54;;;;;;;9.18;7.90;;;;;;;;;;5071134;28;20086;-86
2022/06/10 13:57:26;;;;;;;8.48;7.47;;;;;;;;;;5075770;28;20025;-86
2022/06/10 14:00:05;;;;;;;8.75;7.72;;;;;;;;;;5073127;28;20029;-87
2022/06/10 14:02:33;;;;;;;9.70;7.53;;;;;;;;;;5090896;28;20068;-85
2022/06/10 14:05:01;;;;;;;8.57;7.03;;;;;;;;;;5066177;28;20029;-84
2022/06/10 14:07:28;;;;;;;11.48;7.88;;;;;;;;;;5066836;28;20116;-86
2022/06/10 14:09:55;;;;;;;10.05;7.93;;;;;;;;;;5074277;28;20024;-85
2022/06/10 14:12:26;;;;;;;9.82;7.57;;;;;;;;;;5086010;28;20032;-86
2022/06/10 14:14:52;;;;;;;10.48;7.60;;;;;;;;;;5080674;28;20059;-84
2022/06/10 14:17:21;;;;;;;8.45;7.05;;;;;;;;;;5079239;28;20116;-85
2022/06/10 14:19:47;;;;;;;9.18;7.20;;;;;;;;;;5079231;28;20028;-84
2022/06/10 14:22:18;;;;;;;8.68;7.40;;;;;;;;;;5099008;28;20051;-85
2022/06/10 14:25:04;;;;;;;8.80;7.63;;;;;;;;;;5069678;28;20510;-85
2022/06/10 14:27:30;;;;;;;8.45;7.28;;;;;;;;;;5075289;28;20024;-85
2022/06/10 14:30:01;;;;;;;10.15;6.75;;;;;;;;;;5070418;28;20091;-84
2022/06/10 14:32:32;;;;;;;9.18;6.93;;;;;;;;;;5077498;28;20028;-87
2022/06/10 14:35:21;;;;;;;10.55;7.70;;;;;;;;;;5073805;28;20058;-84
2022/06/10 14:37:47;;;;;;;9.80;7.75;;;;;;;;;;5081260;28;20063;-86
2022/06/10 14:40:19;;;;;;;8.95;7.32;;;;;;;;;;5071965;28;20024;-86
2022/06/10 14:42:47;;;;;;;8.70;7.15;;;;;;;;;;5068496;28;20024;-85
2022/06/10 14:45:33;;;;;;;9.13;7.45;;;;;;;;;;5066775;28;20024;-85
2022/06/10 14:48:08;;;;;;;9.48;8.13;;;;;;;;;;5068834;28;20083;-85
2022/06/10 14:50:35;;;;;;;9.57;7.18;;;;;;;;;;5064914;28;20165;-83
2022/06/10 14:53:01;;;;;;;8.98;7.70;;;;;;;;;;5065156;28;20044;-84
2022/06/10 14:55:32;;;;;;;12.20;7.85;;;;;;;;;;5080861;28;20415;-87
2022/06/10 14:58:00;;;;;;;9.57;7.00;;;;;;;;;;5060389;28;20078;-87
2022/06/10 15:00:28;;;;;;;9.40;7.82;;;;;;;;;;5085858;28;20033;-87
2022/06/10 15:02:55;;;;;;;9.05;7.63;;;;;;;;;;5061173;28;20017;-86